createdAt,value
2022-08-08T00:00:53.211Z,21.32
2022-08-08T00:04:36.335Z,21.28
2022-08-08T00:08:49.214Z,21.28
2022-08-08T00:13:00.914Z,21.27
2022-08-08T00:17:23.512Z,21.29
2022-08-08T00:21:43.447Z,21.30
2022-08-08T00:25:54.191Z,21.28
2022-08-08T00:30:01.659Z,21.28
2022-08-08T00:34:46.370Z,21.28
2022-08-08T00:38:55.968Z,21.26
2022-08-08T00:43:29.692Z,21.23
2022-08-08T00:48:33.849Z,21.23
2022-08-08T00:52:53.982Z,21.18
2022-08-08T00:57:29.595Z,21.15
2022-08-08T01:02:02.013Z,21.11
2022-08-08T01:06:47.627Z,21.10
2022-08-08T01:11:27.848Z,21.12
2022-08-08T01:16:04.618Z,21.09
2022-08-08T01:20:39.823Z,21.06
2022-08-08T01:25:40.039Z,21.03
2022-08-08T01:30:13.289Z,21.02
2022-08-08T01:35:11.045Z,20.99
2022-08-08T01:39:41.934Z,20.94
2022-08-08T01:43:53.508Z,20.90
2022-08-08T01:48:23.525Z,20.87
2022-08-08T01:54:04.109Z,20.82
2022-08-08T01:58:04.164Z,20.79
2022-08-08T02:02:08.330Z,20.76
2022-08-08T02:06:36.617Z,20.76
2022-08-08T02:11:01.525Z,20.76
2022-08-08T02:15:12.997Z,20.75
2022-08-08T02:20:08.370Z,20.71
2022-08-08T02:23:59.187Z,20.67
2022-08-08T02:28:10.727Z,20.64
2022-08-08T02:32:49.314Z,20.62
2022-08-08T02:37:02.233Z,20.62
2022-08-08T02:42:04.180Z,20.59
2022-08-08T02:46:31.730Z,20.55
2022-08-08T02:51:14.992Z,20.53
2022-08-08T02:56:03.334Z,20.50
2022-08-08T03:00:31.356Z,20.47
2022-08-08T03:05:17.526Z,20.41
2022-08-08T03:09:53.047Z,20.35
2022-08-08T03:16:01.577Z,20.30
2022-08-08T03:18:52.362Z,20.30
2022-08-08T03:23:00.465Z,20.28
2022-08-08T03:27:17.370Z,20.26
2022-08-08T03:32:06.207Z,20.23
2022-08-08T03:36:04.856Z,20.16
2022-08-08T03:40:29.475Z,20.11
2022-08-08T03:44:38.618Z,20.10
2022-08-08T03:49:56.142Z,20.08
2022-08-08T03:53:23.970Z,20.05
2022-08-08T03:58:09.419Z,20.04
2022-08-08T04:02:36.513Z,20.02
2022-08-08T04:06:42.560Z,20.02
2022-08-08T04:10:48.746Z,20.04
2022-08-08T04:15:07.088Z,19.98
2022-08-08T04:19:24.963Z,19.95
2022-08-08T04:24:12.172Z,19.93
2022-08-08T04:28:34.306Z,19.92
2022-08-08T04:32:30.533Z,19.92
2022-08-08T04:36:34.903Z,19.90
2022-08-08T04:40:38.958Z,19.84
2022-08-08T04:44:55.699Z,19.83
2022-08-08T04:49:00.533Z,19.87
2022-08-08T04:53:13.898Z,19.88
2022-08-08T04:57:28.308Z,19.89
2022-08-08T05:01:35.598Z,19.93
2022-08-08T05:05:56.089Z,19.99
2022-08-08T05:10:00.114Z,20.04
2022-08-08T05:14:08.745Z,20.03
2022-08-08T05:18:17.294Z,20.04
2022-08-08T05:22:23.258Z,20.04
2022-08-08T05:26:27.656Z,20.05
2022-08-08T05:30:32.119Z,20.08
2022-08-08T05:34:43.470Z,20.11
2022-08-08T05:38:53.033Z,20.12
2022-08-08T05:43:02.955Z,20.12
2022-08-08T05:47:22.723Z,20.12
2022-08-08T05:51:26.407Z,20.14
2022-08-08T05:56:09.764Z,20.20
2022-08-08T06:00:25.357Z,20.22
2022-08-08T06:04:30.651Z,20.22
2022-08-08T06:08:38.782Z,20.27
2022-08-08T06:12:59.147Z,20.36
2022-08-08T06:17:07.343Z,20.43
2022-08-08T06:21:32.602Z,20.45
2022-08-08T06:26:38.397Z,20.46
2022-08-08T06:30:11.965Z,20.50
2022-08-08T06:34:31.493Z,20.59
2022-08-08T06:38:39.485Z,20.66
2022-08-08T06:42:55.577Z,20.72
2022-08-08T06:47:07.409Z,20.78
2022-08-08T06:51:15.806Z,20.85
2022-08-08T06:55:21.729Z,20.87
2022-08-08T06:59:25.496Z,20.93
2022-08-08T07:04:39.898Z,21.00
2022-08-08T07:08:19.728Z,21.06
2022-08-08T07:12:31.770Z,21.17
2022-08-08T07:16:53.829Z,21.24
2022-08-08T07:21:05.273Z,21.29
2022-08-08T07:25:29.422Z,21.48
2022-08-08T07:30:00.011Z,21.58
2022-08-08T07:34:03.276Z,21.72
2022-08-08T07:38:20.541Z,21.79
2022-08-08T07:42:38.825Z,21.83
2022-08-08T07:46:46.210Z,21.83
2022-08-08T07:50:58.780Z,21.78
2022-08-08T07:55:12.039Z,21.75
2022-08-08T07:59:19.416Z,21.69
2022-08-08T08:03:41.184Z,21.54
2022-08-08T08:07:53.154Z,21.38
2022-08-08T08:12:01.131Z,21.21
2022-08-08T08:16:17.014Z,21.04
2022-08-08T08:20:30.344Z,20.85
2022-08-08T08:24:36.742Z,20.59
2022-08-08T08:28:43.502Z,20.50
2022-08-08T08:32:51.816Z,20.44
2022-08-08T08:36:59.478Z,20.40
2022-08-08T08:41:06.242Z,20.40
2022-08-08T08:45:23.857Z,20.42
2022-08-08T08:49:34.764Z,20.45
2022-08-08T08:53:55.408Z,20.44
2022-08-08T08:58:07.017Z,20.40
2022-08-08T09:02:21.823Z,20.30
2022-08-08T09:06:34.287Z,20.28
2022-08-08T09:10:42.280Z,20.26
2022-08-08T09:14:55.641Z,20.23
2022-08-08T09:19:03.494Z,20.19
2022-08-08T09:23:10.576Z,20.15
2022-08-08T09:27:22.832Z,20.12
2022-08-08T09:31:55.914Z,20.07
2022-08-08T09:36:03.544Z,20.05
2022-08-08T09:40:10.553Z,20.06
2022-08-08T09:44:29.757Z,20.07
2022-08-08T09:48:42.878Z,20.13
2022-08-08T09:52:57.680Z,20.18
2022-08-08T09:57:06.261Z,20.23
2022-08-08T10:02:02.230Z,20.27
2022-08-08T10:05:47.322Z,20.34
2022-08-08T10:10:00.434Z,20.40
2022-08-08T10:14:07.410Z,20.41
2022-08-08T10:18:33.542Z,20.38
2022-08-08T10:22:54.897Z,20.33
2022-08-08T10:27:01.609Z,20.26
2022-08-08T10:31:47.280Z,20.19
2022-08-08T10:36:08.923Z,20.08
2022-08-08T10:40:20.909Z,20.08
2022-08-08T10:44:30.775Z,20.08
2022-08-08T10:48:55.903Z,20.08
2022-08-08T10:53:03.397Z,20.07
2022-08-08T10:57:10.690Z,20.07
2022-08-08T11:01:16.802Z,20.03
2022-08-08T11:05:23.185Z,20.03
2022-08-08T11:09:26.688Z,19.97
2022-08-08T11:13:52.162Z,20.02
2022-08-08T11:18:05.793Z,20.06
2022-08-08T11:22:14.300Z,20.07
2022-08-08T11:26:20.919Z,20.01
2022-08-08T11:30:34.186Z,20.01
2022-08-08T11:35:29.560Z,20.02
2022-08-08T11:39:15.562Z,20.03
2022-08-08T11:43:19.556Z,20.00
2022-08-08T11:47:25.735Z,20.04
2022-08-08T11:51:50.318Z,20.06
2022-08-08T11:55:55.430Z,20.06
2022-08-08T12:00:02.541Z,20.06
2022-08-08T12:04:19.714Z,20.09
2022-08-08T12:08:35.174Z,20.15
2022-08-08T12:12:45.861Z,20.16
2022-08-08T12:16:53.274Z,20.17
2022-08-08T12:20:59.826Z,20.17
2022-08-08T12:25:05.172Z,20.25
2022-08-08T12:29:25.917Z,20.35
2022-08-08T12:34:02.115Z,20.45
2022-08-08T12:38:09.145Z,20.53
2022-08-08T12:42:21.546Z,20.57
2022-08-08T12:46:26.668Z,20.63
2022-08-08T12:50:40.273Z,20.70
2022-08-08T12:54:49.976Z,20.76
2022-08-08T12:58:56.426Z,20.78
2022-08-08T13:03:01.036Z,20.81
2022-08-08T13:07:07.482Z,20.87
2022-08-08T13:12:18.063Z,20.91
2022-08-08T13:16:21.437Z,20.96
2022-08-08T13:20:27.207Z,20.97
2022-08-08T13:24:42.508Z,20.97
2022-08-08T13:28:48.866Z,20.95
2022-08-08T13:32:56.541Z,20.95
2022-08-08T13:37:01.039Z,20.93
2022-08-08T13:41:04.528Z,20.91
2022-08-08T13:45:10.790Z,20.88
2022-08-08T13:50:35.129Z,20.85
2022-08-08T13:53:59.878Z,20.82
2022-08-08T13:58:08.796Z,20.75
2022-08-08T14:02:22.283Z,20.73
2022-08-08T14:06:46.464Z,20.73
2022-08-08T14:10:50.913Z,20.71
2022-08-08T14:14:54.211Z,20.72
2022-08-08T14:19:00.583Z,20.76
2022-08-08T14:23:21.243Z,20.82
2022-08-08T14:27:37.556Z,20.85
2022-08-08T14:32:10.067Z,20.88
2022-08-08T14:36:13.852Z,20.91
2022-08-08T14:40:23.879Z,20.95
2022-08-08T14:44:35.126Z,20.98
2022-08-08T14:48:52.607Z,21.01
2022-08-08T14:53:04.339Z,21.03
2022-08-08T14:57:08.767Z,21.00
2022-08-08T15:01:23.829Z,20.98
2022-08-08T15:05:42.653Z,20.96
2022-08-08T15:09:56.515Z,20.95
2022-08-08T15:14:03.168Z,20.97
2022-08-08T15:18:06.980Z,21.02
2022-08-08T15:22:23.314Z,21.05
2022-08-08T15:26:28.903Z,21.05
2022-08-08T15:30:34.076Z,21.09
2022-08-08T15:34:37.066Z,21.11
2022-08-08T15:38:50.259Z,21.12
2022-08-08T15:42:53.852Z,21.14
2022-08-08T15:46:58.318Z,21.19
2022-08-08T15:51:06.549Z,21.22
2022-08-08T15:55:11.232Z,21.26
2022-08-08T15:59:15.951Z,21.29
2022-08-08T16:03:21.102Z,21.33
2022-08-08T16:07:51.958Z,21.38
2022-08-08T16:13:15.208Z,21.42
2022-08-08T16:16:17.981Z,21.47
2022-08-08T16:20:23.288Z,21.51
2022-08-08T16:24:27.146Z,21.54
2022-08-08T16:28:35.665Z,21.60
2022-08-08T16:32:40.095Z,21.63
2022-08-08T16:36:49.471Z,21.66
2022-08-08T16:40:53.819Z,21.72
2022-08-08T16:44:59.507Z,21.75
2022-08-08T16:49:02.992Z,21.80
2022-08-08T16:55:04.483Z,21.86
2022-08-08T16:58:15.728Z,21.92
2022-08-08T17:01:54.176Z,21.95
2022-08-08T17:05:58.143Z,22.00
2022-08-08T17:10:02.903Z,22.03
2022-08-08T17:14:18.157Z,22.08
2022-08-08T17:18:23.093Z,22.12
2022-08-08T17:22:39.300Z,22.14
2022-08-08T17:26:46.842Z,22.15
2022-08-08T17:30:52.655Z,22.19
2022-08-08T17:35:53.340Z,22.23
2022-08-08T17:39:45.755Z,22.23
2022-08-08T17:44:00.455Z,22.25
2022-08-08T17:48:10.078Z,22.25
2022-08-08T17:52:18.112Z,22.18
2022-08-08T17:56:21.352Z,22.14
2022-08-08T18:00:31.786Z,22.09
2022-08-08T18:04:37.179Z,22.05
2022-08-08T18:08:55.411Z,22.02
2022-08-08T18:12:59.087Z,21.96
2022-08-08T18:17:06.632Z,21.90
2022-08-08T18:21:34.472Z,21.88
2022-08-08T18:25:44.580Z,21.83
2022-08-08T18:29:48.574Z,21.78
2022-08-08T18:34:18.824Z,21.73
2022-08-08T18:38:19.262Z,21.64
2022-08-08T18:42:22.514Z,21.60
2022-08-08T18:46:55.415Z,21.58
2022-08-08T18:50:58.322Z,21.55
2022-08-08T18:55:10.292Z,21.48
2022-08-08T18:59:14.826Z,21.44
2022-08-08T19:03:18.059Z,21.43
2022-08-08T19:07:29.777Z,21.42
2022-08-08T19:11:36.367Z,21.39
2022-08-08T19:15:39.458Z,21.35
2022-08-08T19:19:44.250Z,21.34
2022-08-08T19:24:38.955Z,21.32
2022-08-08T19:28:32.576Z,21.28
2022-08-08T19:32:39.751Z,21.28
2022-08-08T19:36:45.434Z,21.23
2022-08-08T19:40:56.075Z,21.17
2022-08-08T19:45:07.173Z,21.11
2022-08-08T19:49:10.824Z,21.04
2022-08-08T19:53:50.762Z,21.01
2022-08-08T19:57:38.435Z,20.98
2022-08-08T20:02:01.843Z,20.97
2022-08-08T20:06:15.823Z,20.95
2022-08-08T20:10:20.419Z,20.94
2022-08-08T20:14:34.177Z,20.90
2022-08-08T20:18:53.098Z,20.85
2022-08-08T20:22:57.756Z,20.84
2022-08-08T20:27:01.725Z,20.82
2022-08-08T20:31:07.096Z,20.82
2022-08-08T20:35:14.136Z,20.79
2022-08-08T20:39:19.669Z,20.79
2022-08-08T20:43:42.992Z,20.75
2022-08-08T20:47:48.638Z,20.72
2022-08-08T20:52:01.052Z,20.69
2022-08-08T20:56:04.362Z,20.66
2022-08-08T21:00:09.372Z,20.62
2022-08-08T21:04:15.459Z,20.60
2022-08-08T21:08:36.262Z,20.56
2022-08-08T21:12:45.997Z,20.57
2022-08-08T21:16:49.367Z,20.53
2022-08-08T21:20:55.318Z,20.48
2022-08-08T21:24:58.803Z,20.45
2022-08-08T21:29:02.704Z,20.44
2022-08-08T21:33:08.166Z,20.42
2022-08-08T21:37:19.078Z,20.40
2022-08-08T21:41:38.480Z,20.37
2022-08-08T21:48:07.862Z,20.34
2022-08-08T21:50:10.523Z,20.33
2022-08-08T21:54:53.282Z,20.33
2022-08-08T21:58:40.694Z,20.29
2022-08-08T22:02:47.816Z,20.27
2022-08-08T22:06:51.086Z,20.25
2022-08-08T22:10:56.508Z,20.24
2022-08-08T22:15:00.212Z,20.21
2022-08-08T22:19:08.948Z,20.17
2022-08-08T22:23:19.347Z,20.11
2022-08-08T22:27:56.002Z,20.09
2022-08-08T22:31:58.234Z,20.04
2022-08-08T22:36:12.310Z,20.01
2022-08-08T22:40:16.996Z,19.98
2022-08-08T22:44:22.039Z,19.96
2022-08-08T22:48:27.076Z,19.92
2022-08-08T22:52:33.412Z,19.91
2022-08-08T22:56:38.988Z,19.90
2022-08-08T23:00:44.315Z,19.89
2022-08-08T23:04:58.578Z,19.87
2022-08-08T23:09:09.611Z,19.86
2022-08-08T23:13:13.119Z,19.81
2022-08-08T23:17:18.021Z,19.78
2022-08-08T23:21:21.152Z,19.73
2022-08-08T23:25:24.607Z,19.71
2022-08-08T23:29:29.792Z,19.68
2022-08-08T23:34:18.750Z,19.65
2022-08-08T23:38:03.258Z,19.60
2022-08-08T23:42:08.806Z,19.57
2022-08-08T23:49:04.478Z,19.55
2022-08-08T23:50:37.073Z,19.55
2022-08-08T23:55:00.274Z,19.54
2022-08-08T23:59:16.937Z,19.51
